sensor_id;sensor_type;location;lat;lon;timestamp;P1;durP1;ratioP1;P2;durP2;ratioP2
74650;SDS011;63169;46.042;14.592;2023-02-11T00:01:21;31.35;;;15.57;;
74650;SDS011;63169;46.042;14.592;2023-02-11T00:03:50;24.92;;;11.70;;
74650;SDS011;63169;46.042;14.592;2023-02-11T00:06:15;24.35;;;10.85;;
74650;SDS011;63169;46.042;14.592;2023-02-11T00:08:41;25.92;;;10.75;;
74650;SDS011;63169;46.042;14.592;2023-02-11T00:11:07;27.55;;;14.88;;
74650;SDS011;63169;46.042;14.592;2023-02-11T00:13:38;29.55;;;15.15;;
74650;SDS011;63169;46.042;14.592;2023-02-11T00:16:08;30.10;;;15.70;;
74650;SDS011;63169;46.042;14.592;2023-02-11T00:18:34;23.65;;;16.00;;
74650;SDS011;63169;46.042;14.592;2023-02-11T00:21:04;30.23;;;16.95;;
74650;SDS011;63169;46.042;14.592;2023-02-11T00:23:33;32.72;;;16.55;;
74650;SDS011;63169;46.042;14.592;2023-02-11T00:25:58;29.25;;;17.55;;
74650;SDS011;63169;46.042;14.592;2023-02-11T00:28:24;32.30;;;13.45;;
74650;SDS011;63169;46.042;14.592;2023-02-11T00:30:58;32.47;;;16.48;;
74650;SDS011;63169;46.042;14.592;2023-02-11T00:33:25;31.58;;;16.75;;
74650;SDS011;63169;46.042;14.592;2023-02-11T00:35:50;30.08;;;13.35;;
74650;SDS011;63169;46.042;14.592;2023-02-11T00:38:16;33.65;;;12.40;;
74650;SDS011;63169;46.042;14.592;2023-02-11T00:40:41;26.73;;;12.07;;
74650;SDS011;63169;46.042;14.592;2023-02-11T00:43:06;25.08;;;13.10;;
74650;SDS011;63169;46.042;14.592;2023-02-11T00:45:32;26.27;;;13.48;;
74650;SDS011;63169;46.042;14.592;2023-02-11T00:47:57;25.88;;;11.15;;
74650;SDS011;63169;46.042;14.592;2023-02-11T00:50:23;25.38;;;10.98;;
74650;SDS011;63169;46.042;14.592;2023-02-11T00:52:48;24.20;;;10.93;;
74650;SDS011;63169;46.042;14.592;2023-02-11T00:55:14;24.95;;;13.90;;
74650;SDS011;63169;46.042;14.592;2023-02-11T00:57:40;26.92;;;14.18;;
74650;SDS011;63169;46.042;14.592;2023-02-11T01:00:06;27.33;;;13.48;;
74650;SDS011;63169;46.042;14.592;2023-02-11T01:02:38;24.55;;;10.20;;
74650;SDS011;63169;46.042;14.592;2023-02-11T01:05:04;28.23;;;13.85;;
74650;SDS011;63169;46.042;14.592;2023-02-11T01:07:29;27.13;;;11.73;;
74650;SDS011;63169;46.042;14.592;2023-02-11T01:09:55;28.27;;;12.15;;
74650;SDS011;63169;46.042;14.592;2023-02-11T01:12:21;23.88;;;10.73;;
74650;SDS011;63169;46.042;14.592;2023-02-11T01:14:47;23.77;;;12.95;;
74650;SDS011;63169;46.042;14.592;2023-02-11T01:17:12;25.55;;;15.52;;
74650;SDS011;63169;46.042;14.592;2023-02-11T01:19:38;22.52;;;12.32;;
74650;SDS011;63169;46.042;14.592;2023-02-11T01:22:03;26.75;;;14.65;;
74650;SDS011;63169;46.042;14.592;2023-02-11T01:24:29;22.30;;;10.98;;
74650;SDS011;63169;46.042;14.592;2023-02-11T01:26:55;27.70;;;10.88;;
74650;SDS011;63169;46.042;14.592;2023-02-11T01:29:20;22.60;;;10.68;;
74650;SDS011;63169;46.042;14.592;2023-02-11T01:31:46;21.30;;;13.88;;
74650;SDS011;63169;46.042;14.592;2023-02-11T01:34:12;29.25;;;14.27;;
74650;SDS011;63169;46.042;14.592;2023-02-11T01:36:37;25.23;;;11.25;;
74650;SDS011;63169;46.042;14.592;2023-02-11T01:39:03;23.40;;;11.50;;
74650;SDS011;63169;46.042;14.592;2023-02-11T01:41:28;25.60;;;15.38;;
74650;SDS011;63169;46.042;14.592;2023-02-11T01:43:54;27.25;;;12.32;;
74650;SDS011;63169;46.042;14.592;2023-02-11T01:46:28;29.95;;;14.50;;
74650;SDS011;63169;46.042;14.592;2023-02-11T01:49:03;28.15;;;12.15;;
74650;SDS011;63169;46.042;14.592;2023-02-11T01:51:38;27.25;;;13.55;;
74650;SDS011;63169;46.042;14.592;2023-02-11T01:54:05;26.83;;;15.10;;
74650;SDS011;63169;46.042;14.592;2023-02-11T01:56:50;26.38;;;15.15;;
74650;SDS011;63169;46.042;14.592;2023-02-11T02:00:36;24.13;;;10.85;;
74650;SDS011;63169;46.042;14.592;2023-02-11T02:08:34;28.40;;;14.98;;
74650;SDS011;63169;46.042;14.592;2023-02-11T02:11:05;25.95;;;12.32;;
74650;SDS011;63169;46.042;14.592;2023-02-11T02:13:31;32.92;;;15.07;;
74650;SDS011;63169;46.042;14.592;2023-02-11T02:16:00;25.85;;;13.75;;
74650;SDS011;63169;46.042;14.592;2023-02-11T02:38:19;21.45;;;10.18;;
74650;SDS011;63169;46.042;14.592;2023-02-11T02:40:52;20.40;;;9.45;;
74650;SDS011;63169;46.042;14.592;2023-02-11T02:43:20;21.55;;;9.88;;
74650;SDS011;63169;46.042;14.592;2023-02-11T02:45:46;18.75;;;9.18;;
74650;SDS011;63169;46.042;14.592;2023-02-11T02:48:31;19.33;;;8.43;;
74650;SDS011;63169;46.042;14.592;2023-02-11T02:51:07;23.35;;;12.38;;
74650;SDS011;63169;46.042;14.592;2023-02-11T02:56:13;24.52;;;11.15;;
74650;SDS011;63169;46.042;14.592;2023-02-11T02:59:08;31.55;;;16.52;;
74650;SDS011;63169;46.042;14.592;2023-02-11T03:04:24;26.13;;;12.95;;
74650;SDS011;63169;46.042;14.592;2023-02-11T03:09:25;26.55;;;12.90;;
74650;SDS011;63169;46.042;14.592;2023-02-11T03:11:54;28.08;;;15.18;;
74650;SDS011;63169;46.042;14.592;2023-02-11T03:14:19;30.33;;;17.80;;
74650;SDS011;63169;46.042;14.592;2023-02-11T03:16:46;29.70;;;12.95;;
74650;SDS011;63169;46.042;14.592;2023-02-11T03:19:14;24.00;;;16.85;;
74650;SDS011;63169;46.042;14.592;2023-02-11T03:21:43;25.55;;;12.63;;
74650;SDS011;63169;46.042;14.592;2023-02-11T03:24:13;24.20;;;12.02;;
74650;SDS011;63169;46.042;14.592;2023-02-11T03:26:54;23.85;;;14.45;;
74650;SDS011;63169;46.042;14.592;2023-02-11T03:29:34;26.40;;;14.18;;
74650;SDS011;63169;46.042;14.592;2023-02-11T03:35:02;26.63;;;14.43;;
74650;SDS011;63169;46.042;14.592;2023-02-11T03:40:01;22.05;;;8.18;;
74650;SDS011;63169;46.042;14.592;2023-02-11T03:42:38;24.13;;;9.98;;
74650;SDS011;63169;46.042;14.592;2023-02-11T03:45:07;24.70;;;13.15;;
74650;SDS011;63169;46.042;14.592;2023-02-11T03:52:25;17.33;;;8.88;;
74650;SDS011;63169;46.042;14.592;2023-02-11T03:54:52;22.48;;;9.07;;
74650;SDS011;63169;46.042;14.592;2023-02-11T03:57:20;25.48;;;12.23;;
74650;SDS011;63169;46.042;14.592;2023-02-11T03:59:52;23.38;;;9.55;;
74650;SDS011;63169;46.042;14.592;2023-02-11T04:02:20;20.05;;;9.25;;
74650;SDS011;63169;46.042;14.592;2023-02-11T04:04:46;23.00;;;10.63;;
74650;SDS011;63169;46.042;14.592;2023-02-11T04:07:11;22.35;;;10.93;;
74650;SDS011;63169;46.042;14.592;2023-02-11T04:09:37;21.70;;;13.02;;
74650;SDS011;63169;46.042;14.592;2023-02-11T04:12:02;22.45;;;10.02;;
74650;SDS011;63169;46.042;14.592;2023-02-11T04:14:28;30.73;;;11.32;;
74650;SDS011;63169;46.042;14.592;2023-02-11T04:16:53;24.40;;;12.07;;
74650;SDS011;63169;46.042;14.592;2023-02-11T04:19:19;30.92;;;16.40;;
74650;SDS011;63169;46.042;14.592;2023-02-11T04:21:44;27.83;;;15.35;;
74650;SDS011;63169;46.042;14.592;2023-02-11T04:24:09;30.40;;;17.50;;
74650;SDS011;63169;46.042;14.592;2023-02-11T04:26:35;31.08;;;16.33;;
74650;SDS011;63169;46.042;14.592;2023-02-11T04:29:00;26.15;;;15.75;;
74650;SDS011;63169;46.042;14.592;2023-02-11T04:31:28;30.42;;;16.35;;
74650;SDS011;63169;46.042;14.592;2023-02-11T04:33:54;31.35;;;17.42;;
74650;SDS011;63169;46.042;14.592;2023-02-11T04:36:20;25.00;;;12.40;;
74650;SDS011;63169;46.042;14.592;2023-02-11T04:38:45;26.08;;;12.77;;
74650;SDS011;63169;46.042;14.592;2023-02-11T04:41:11;28.17;;;15.20;;
74650;SDS011;63169;46.042;14.592;2023-02-11T04:43:36;24.92;;;15.75;;
74650;SDS011;63169;46.042;14.592;2023-02-11T04:46:01;27.75;;;15.10;;
74650;SDS011;63169;46.042;14.592;2023-02-11T04:48:27;24.17;;;15.20;;
74650;SDS011;63169;46.042;14.592;2023-02-11T04:50:52;27.85;;;11.35;;
74650;SDS011;63169;46.042;14.592;2023-02-11T04:53:17;25.80;;;16.00;;
74650;SDS011;63169;46.042;14.592;2023-02-11T04:55:43;35.92;;;16.95;;
74650;SDS011;63169;46.042;14.592;2023-02-11T04:58:08;28.15;;;16.60;;
74650;SDS011;63169;46.042;14.592;2023-02-11T05:00:33;30.65;;;13.40;;
74650;SDS011;63169;46.042;14.592;2023-02-11T05:02:59;26.58;;;14.43;;
74650;SDS011;63169;46.042;14.592;2023-02-11T05:05:24;25.77;;;14.57;;
74650;SDS011;63169;46.042;14.592;2023-02-11T05:07:49;23.80;;;14.95;;
74650;SDS011;63169;46.042;14.592;2023-02-11T05:10:15;27.70;;;13.40;;
74650;SDS011;63169;46.042;14.592;2023-02-11T05:12:40;27.00;;;15.18;;
74650;SDS011;63169;46.042;14.592;2023-02-11T05:15:06;24.70;;;13.82;;
74650;SDS011;63169;46.042;14.592;2023-02-11T05:17:32;27.67;;;13.20;;
74650;SDS011;63169;46.042;14.592;2023-02-11T05:19:57;21.20;;;10.85;;
74650;SDS011;63169;46.042;14.592;2023-02-11T05:22:22;24.00;;;13.68;;
74650;SDS011;63169;46.042;14.592;2023-02-11T05:24:48;24.50;;;10.88;;
74650;SDS011;63169;46.042;14.592;2023-02-11T05:27:14;21.30;;;13.23;;
74650;SDS011;63169;46.042;14.592;2023-02-11T05:29:39;23.00;;;13.95;;
74650;SDS011;63169;46.042;14.592;2023-02-11T05:32:05;24.95;;;10.90;;
74650;SDS011;63169;46.042;14.592;2023-02-11T05:34:31;26.13;;;14.15;;
74650;SDS011;63169;46.042;14.592;2023-02-11T05:36:56;30.80;;;17.45;;
74650;SDS011;63169;46.042;14.592;2023-02-11T05:39:22;33.45;;;15.05;;
74650;SDS011;63169;46.042;14.592;2023-02-11T05:41:47;35.55;;;15.90;;
74650;SDS011;63169;46.042;14.592;2023-02-11T05:44:12;32.10;;;14.90;;
74650;SDS011;63169;46.042;14.592;2023-02-11T05:46:38;31.63;;;16.42;;
74650;SDS011;63169;46.042;14.592;2023-02-11T05:49:04;30.20;;;13.85;;
74650;SDS011;63169;46.042;14.592;2023-02-11T05:51:29;29.65;;;22.23;;
74650;SDS011;63169;46.042;14.592;2023-02-11T05:53:55;24.60;;;14.48;;
74650;SDS011;63169;46.042;14.592;2023-02-11T05:56:20;25.48;;;16.45;;
74650;SDS011;63169;46.042;14.592;2023-02-11T05:58:45;27.27;;;16.17;;
74650;SDS011;63169;46.042;14.592;2023-02-11T06:01:11;28.70;;;14.88;;
74650;SDS011;63169;46.042;14.592;2023-02-11T06:03:36;24.73;;;13.95;;
74650;SDS011;63169;46.042;14.592;2023-02-11T06:06:01;26.77;;;14.73;;
74650;SDS011;63169;46.042;14.592;2023-02-11T06:08:27;21.67;;;11.85;;
74650;SDS011;63169;46.042;14.592;2023-02-11T06:10:52;27.17;;;14.50;;
74650;SDS011;63169;46.042;14.592;2023-02-11T06:13:18;30.05;;;12.85;;
74650;SDS011;63169;46.042;14.592;2023-02-11T06:15:43;25.70;;;13.48;;
74650;SDS011;63169;46.042;14.592;2023-02-11T06:18:09;29.52;;;16.95;;
74650;SDS011;63169;46.042;14.592;2023-02-11T06:20:37;28.95;;;16.02;;
74650;SDS011;63169;46.042;14.592;2023-02-11T06:23:05;27.40;;;15.00;;
74650;SDS011;63169;46.042;14.592;2023-02-11T06:25:30;28.17;;;13.82;;
74650;SDS011;63169;46.042;14.592;2023-02-11T06:27:56;26.83;;;12.57;;
74650;SDS011;63169;46.042;14.592;2023-02-11T06:30:21;26.92;;;14.25;;
74650;SDS011;63169;46.042;14.592;2023-02-11T06:32:46;31.27;;;15.98;;
74650;SDS011;63169;46.042;14.592;2023-02-11T06:35:12;21.20;;;12.85;;
74650;SDS011;63169;46.042;14.592;2023-02-11T06:37:38;24.63;;;13.27;;
74650;SDS011;63169;46.042;14.592;2023-02-11T06:40:05;34.28;;;15.68;;
74650;SDS011;63169;46.042;14.592;2023-02-11T06:42:30;28.20;;;17.35;;
74650;SDS011;63169;46.042;14.592;2023-02-11T06:44:56;29.10;;;16.88;;
74650;SDS011;63169;46.042;14.592;2023-02-11T06:47:21;31.27;;;19.13;;
74650;SDS011;63169;46.042;14.592;2023-02-11T06:49:47;35.20;;;18.58;;
74650;SDS011;63169;46.042;14.592;2023-02-11T06:52:12;42.28;;;21.30;;
74650;SDS011;63169;46.042;14.592;2023-02-11T06:54:37;41.75;;;23.67;;
74650;SDS011;63169;46.042;14.592;2023-02-11T06:57:03;50.42;;;23.25;;
74650;SDS011;63169;46.042;14.592;2023-02-11T06:59:28;32.97;;;16.23;;
74650;SDS011;63169;46.042;14.592;2023-02-11T07:01:53;41.60;;;21.02;;
74650;SDS011;63169;46.042;14.592;2023-02-11T07:04:22;37.00;;;16.85;;
74650;SDS011;63169;46.042;14.592;2023-02-11T07:06:47;37.38;;;23.70;;
74650;SDS011;63169;46.042;14.592;2023-02-11T07:09:13;35.50;;;19.05;;
74650;SDS011;63169;46.042;14.592;2023-02-11T07:11:38;38.47;;;22.30;;
74650;SDS011;63169;46.042;14.592;2023-02-11T07:14:05;34.88;;;18.67;;
74650;SDS011;63169;46.042;14.592;2023-02-11T07:16:32;29.10;;;14.05;;
74650;SDS011;63169;46.042;14.592;2023-02-11T07:18:58;30.35;;;17.85;;
74650;SDS011;63169;46.042;14.592;2023-02-11T07:21:23;32.30;;;14.32;;
74650;SDS011;63169;46.042;14.592;2023-02-11T07:23:49;33.65;;;15.10;;
74650;SDS011;63169;46.042;14.592;2023-02-11T07:26:16;34.63;;;19.77;;
74650;SDS011;63169;46.042;14.592;2023-02-11T07:28:43;31.92;;;14.13;;
74650;SDS011;63169;46.042;14.592;2023-02-11T07:31:13;45.05;;;25.73;;
74650;SDS011;63169;46.042;14.592;2023-02-11T07:33:39;46.65;;;28.98;;
74650;SDS011;63169;46.042;14.592;2023-02-11T07:36:05;40.10;;;22.27;;
74650;SDS011;63169;46.042;14.592;2023-02-11T07:38:33;39.38;;;18.85;;
74650;SDS011;63169;46.042;14.592;2023-02-11T07:40:59;47.33;;;25.92;;
74650;SDS011;63169;46.042;14.592;2023-02-11T07:43:25;37.35;;;22.75;;
74650;SDS011;63169;46.042;14.592;2023-02-11T07:45:52;39.08;;;23.30;;
74650;SDS011;63169;46.042;14.592;2023-02-11T07:48:18;35.92;;;20.60;;
74650;SDS011;63169;46.042;14.592;2023-02-11T07:50:44;40.40;;;18.75;;
74650;SDS011;63169;46.042;14.592;2023-02-11T07:53:09;42.75;;;25.48;;
74650;SDS011;63169;46.042;14.592;2023-02-11T07:55:34;41.75;;;27.80;;
74650;SDS011;63169;46.042;14.592;2023-02-11T07:58:00;41.58;;;20.02;;
74650;SDS011;63169;46.042;14.592;2023-02-11T08:00:25;39.28;;;18.83;;
74650;SDS011;63169;46.042;14.592;2023-02-11T08:02:51;41.75;;;25.02;;
74650;SDS011;63169;46.042;14.592;2023-02-11T08:05:16;46.42;;;26.92;;
74650;SDS011;63169;46.042;14.592;2023-02-11T08:07:41;45.95;;;25.52;;
74650;SDS011;63169;46.042;14.592;2023-02-11T08:10:07;46.85;;;28.35;;
74650;SDS011;63169;46.042;14.592;2023-02-11T08:12:32;51.83;;;29.77;;
74650;SDS011;63169;46.042;14.592;2023-02-11T08:14:58;48.55;;;24.05;;
74650;SDS011;63169;46.042;14.592;2023-02-11T08:17:23;57.67;;;34.08;;
74650;SDS011;63169;46.042;14.592;2023-02-11T08:19:48;50.65;;;29.70;;
74650;SDS011;63169;46.042;14.592;2023-02-11T08:22:14;44.03;;;22.85;;
74650;SDS011;63169;46.042;14.592;2023-02-11T08:24:39;47.38;;;23.70;;
74650;SDS011;63169;46.042;14.592;2023-02-11T08:27:05;49.45;;;27.35;;
74650;SDS011;63169;46.042;14.592;2023-02-11T08:29:30;47.88;;;26.20;;
74650;SDS011;63169;46.042;14.592;2023-02-11T08:31:55;45.80;;;23.05;;
74650;SDS011;63169;46.042;14.592;2023-02-11T08:34:21;50.08;;;28.15;;
74650;SDS011;63169;46.042;14.592;2023-02-11T08:36:46;52.72;;;29.17;;
74650;SDS011;63169;46.042;14.592;2023-02-11T08:39:17;43.80;;;27.85;;
74650;SDS011;63169;46.042;14.592;2023-02-11T08:41:44;49.95;;;29.50;;
74650;SDS011;63169;46.042;14.592;2023-02-11T08:44:09;51.33;;;28.83;;
74650;SDS011;63169;46.042;14.592;2023-02-11T08:46:35;47.45;;;26.92;;
74650;SDS011;63169;46.042;14.592;2023-02-11T08:49:00;49.75;;;28.77;;
74650;SDS011;63169;46.042;14.592;2023-02-11T08:51:26;46.72;;;28.23;;
74650;SDS011;63169;46.042;14.592;2023-02-11T08:53:54;49.83;;;28.10;;
74650;SDS011;63169;46.042;14.592;2023-02-11T08:56:20;47.38;;;29.90;;
74650;SDS011;63169;46.042;14.592;2023-02-11T08:58:47;49.92;;;26.90;;
74650;SDS011;63169;46.042;14.592;2023-02-11T09:01:14;48.55;;;28.10;;
74650;SDS011;63169;46.042;14.592;2023-02-11T09:03:41;49.58;;;25.02;;
74650;SDS011;63169;46.042;14.592;2023-02-11T09:06:07;56.83;;;30.83;;
74650;SDS011;63169;46.042;14.592;2023-02-11T09:08:34;54.58;;;30.27;;
74650;SDS011;63169;46.042;14.592;2023-02-11T09:11:00;47.67;;;28.13;;
74650;SDS011;63169;46.042;14.592;2023-02-11T09:13:26;52.45;;;25.23;;
74650;SDS011;63169;46.042;14.592;2023-02-11T09:15:51;50.13;;;25.65;;
74650;SDS011;63169;46.042;14.592;2023-02-11T09:18:17;47.83;;;28.50;;
74650;SDS011;63169;46.042;14.592;2023-02-11T09:20:42;48.97;;;29.10;;
74650;SDS011;63169;46.042;14.592;2023-02-11T09:23:08;48.20;;;23.95;;
74650;SDS011;63169;46.042;14.592;2023-02-11T09:25:34;42.13;;;21.80;;
74650;SDS011;63169;46.042;14.592;2023-02-11T09:27:59;48.92;;;27.80;;
74650;SDS011;63169;46.042;14.592;2023-02-11T09:30:24;46.00;;;29.15;;
74650;SDS011;63169;46.042;14.592;2023-02-11T09:32:50;52.03;;;30.50;;
74650;SDS011;63169;46.042;14.592;2023-02-11T09:35:15;49.33;;;29.13;;
74650;SDS011;63169;46.042;14.592;2023-02-11T09:37:40;50.63;;;28.35;;
74650;SDS011;63169;46.042;14.592;2023-02-11T09:40:06;44.10;;;26.10;;
74650;SDS011;63169;46.042;14.592;2023-02-11T09:45:26;48.35;;;27.55;;
74650;SDS011;63169;46.042;14.592;2023-02-11T09:47:54;51.42;;;30.10;;
74650;SDS011;63169;46.042;14.592;2023-02-11T09:50:21;49.38;;;29.58;;
74650;SDS011;63169;46.042;14.592;2023-02-11T09:52:55;42.75;;;27.95;;
74650;SDS011;63169;46.042;14.592;2023-02-11T09:55:44;46.97;;;26.92;;
74650;SDS011;63169;46.042;14.592;2023-02-11T10:00:43;39.45;;;24.02;;
74650;SDS011;63169;46.042;14.592;2023-02-11T10:08:45;42.03;;;22.58;;
74650;SDS011;63169;46.042;14.592;2023-02-11T10:14:08;39.60;;;22.67;;
74650;SDS011;63169;46.042;14.592;2023-02-11T10:16:48;41.72;;;19.95;;
74650;SDS011;63169;46.042;14.592;2023-02-11T10:24:33;39.83;;;24.08;;
74650;SDS011;63169;46.042;14.592;2023-02-11T10:26:59;43.90;;;23.77;;
74650;SDS011;63169;46.042;14.592;2023-02-11T10:29:32;43.92;;;26.38;;
74650;SDS011;63169;46.042;14.592;2023-02-11T10:32:00;56.90;;;35.90;;
74650;SDS011;63169;46.042;14.592;2023-02-11T10:34:26;41.75;;;24.70;;
74650;SDS011;63169;46.042;14.592;2023-02-11T10:36:52;44.58;;;25.20;;
74650;SDS011;63169;46.042;14.592;2023-02-11T10:39:19;41.10;;;24.95;;
74650;SDS011;63169;46.042;14.592;2023-02-11T10:41:53;44.40;;;21.35;;
74650;SDS011;63169;46.042;14.592;2023-02-11T10:44:27;39.55;;;23.45;;
74650;SDS011;63169;46.042;14.592;2023-02-11T10:46:55;42.25;;;25.13;;
74650;SDS011;63169;46.042;14.592;2023-02-11T10:54:57;38.15;;;25.27;;
74650;SDS011;63169;46.042;14.592;2023-02-11T10:57:25;39.72;;;23.83;;
74650;SDS011;63169;46.042;14.592;2023-02-11T10:59:55;35.78;;;18.67;;
74650;SDS011;63169;46.042;14.592;2023-02-11T11:02:32;36.88;;;23.08;;
74650;SDS011;63169;46.042;14.592;2023-02-11T11:05:00;45.15;;;25.25;;
74650;SDS011;63169;46.042;14.592;2023-02-11T11:07:29;39.92;;;23.52;;
74650;SDS011;63169;46.042;14.592;2023-02-11T11:15:13;38.00;;;22.23;;
74650;SDS011;63169;46.042;14.592;2023-02-11T11:18:12;37.72;;;23.23;;
74650;SDS011;63169;46.042;14.592;2023-02-11T11:20:38;38.25;;;23.95;;
74650;SDS011;63169;46.042;14.592;2023-02-11T11:25:43;35.55;;;22.52;;
74650;SDS011;63169;46.042;14.592;2023-02-11T11:28:21;37.53;;;22.67;;
74650;SDS011;63169;46.042;14.592;2023-02-11T11:30:48;42.15;;;25.70;;
74650;SDS011;63169;46.042;14.592;2023-02-11T11:33:22;40.42;;;24.58;;
74650;SDS011;63169;46.042;14.592;2023-02-11T11:38:34;37.85;;;24.15;;
74650;SDS011;63169;46.042;14.592;2023-02-11T11:43:59;40.25;;;24.52;;
74650;SDS011;63169;46.042;14.592;2023-02-11T11:46:30;38.95;;;25.20;;
74650;SDS011;63169;46.042;14.592;2023-02-11T11:51:40;43.13;;;26.42;;
74650;SDS011;63169;46.042;14.592;2023-02-11T11:54:07;38.80;;;24.15;;
74650;SDS011;63169;46.042;14.592;2023-02-11T11:56:49;39.97;;;25.30;;
74650;SDS011;63169;46.042;14.592;2023-02-11T11:59:17;38.83;;;23.23;;
74650;SDS011;63169;46.042;14.592;2023-02-11T12:04:21;34.50;;;21.77;;
74650;SDS011;63169;46.042;14.592;2023-02-11T12:07:29;39.90;;;22.10;;
74650;SDS011;63169;46.042;14.592;2023-02-11T12:10:22;37.42;;;24.65;;
74650;SDS011;63169;46.042;14.592;2023-02-11T12:23:34;35.13;;;21.15;;
74650;SDS011;63169;46.042;14.592;2023-02-11T12:28:43;33.85;;;19.40;;
74650;SDS011;63169;46.042;14.592;2023-02-11T12:42:20;42.58;;;28.08;;
74650;SDS011;63169;46.042;14.592;2023-02-11T12:56:49;33.67;;;17.65;;
74650;SDS011;63169;46.042;14.592;2023-02-11T13:02:00;36.40;;;22.52;;
74650;SDS011;63169;46.042;14.592;2023-02-11T13:04:35;36.20;;;21.48;;
74650;SDS011;63169;46.042;14.592;2023-02-11T13:07:05;32.83;;;21.00;;
74650;SDS011;63169;46.042;14.592;2023-02-11T13:12:08;34.53;;;20.65;;
74650;SDS011;63169;46.042;14.592;2023-02-11T13:14:55;46.20;;;28.25;;
74650;SDS011;63169;46.042;14.592;2023-02-11T13:17:27;40.35;;;24.48;;
74650;SDS011;63169;46.042;14.592;2023-02-11T13:20:20;35.22;;;23.77;;
74650;SDS011;63169;46.042;14.592;2023-02-11T13:22:55;44.22;;;30.20;;
74650;SDS011;63169;46.042;14.592;2023-02-11T13:25:37;32.38;;;20.73;;
74650;SDS011;63169;46.042;14.592;2023-02-11T13:30:50;30.33;;;21.90;;
74650;SDS011;63169;46.042;14.592;2023-02-11T13:33:29;29.15;;;20.30;;
74650;SDS011;63169;46.042;14.592;2023-02-11T13:38:22;33.67;;;21.27;;
74650;SDS011;63169;46.042;14.592;2023-02-11T13:41:36;32.13;;;20.85;;
74650;SDS011;63169;46.042;14.592;2023-02-11T13:43:40;32.60;;;20.67;;
74650;SDS011;63169;46.042;14.592;2023-02-11T13:46:07;36.55;;;20.58;;
74650;SDS011;63169;46.042;14.592;2023-02-11T13:48:36;32.78;;;19.38;;
74650;SDS011;63169;46.042;14.592;2023-02-11T13:51:04;31.42;;;19.45;;
74650;SDS011;63169;46.042;14.592;2023-02-11T13:53:42;33.78;;;18.33;;
74650;SDS011;63169;46.042;14.592;2023-02-11T13:56:12;30.20;;;19.02;;
74650;SDS011;63169;46.042;14.592;2023-02-11T13:58:49;29.27;;;21.55;;
74650;SDS011;63169;46.042;14.592;2023-02-11T14:04:19;31.15;;;19.77;;
74650;SDS011;63169;46.042;14.592;2023-02-11T14:07:26;24.15;;;18.17;;
74650;SDS011;63169;46.042;14.592;2023-02-11T14:16:13;29.40;;;16.52;;
74650;SDS011;63169;46.042;14.592;2023-02-11T14:21:09;30.08;;;20.17;;
74650;SDS011;63169;46.042;14.592;2023-02-11T14:23:37;26.02;;;16.75;;
74650;SDS011;63169;46.042;14.592;2023-02-11T14:29:04;25.40;;;16.60;;
74650;SDS011;63169;46.042;14.592;2023-02-11T14:31:48;25.65;;;16.63;;
74650;SDS011;63169;46.042;14.592;2023-02-11T14:42:20;23.70;;;14.80;;
74650;SDS011;63169;46.042;14.592;2023-02-11T14:44:50;23.45;;;15.63;;
74650;SDS011;63169;46.042;14.592;2023-02-11T14:47:22;25.92;;;13.18;;
74650;SDS011;63169;46.042;14.592;2023-02-11T14:52:27;22.63;;;14.63;;
74650;SDS011;63169;46.042;14.592;2023-02-11T14:55:04;22.27;;;11.00;;
74650;SDS011;63169;46.042;14.592;2023-02-11T14:57:37;20.98;;;10.82;;
74650;SDS011;63169;46.042;14.592;2023-02-11T15:00:04;27.67;;;15.30;;
74650;SDS011;63169;46.042;14.592;2023-02-11T15:02:43;24.13;;;15.85;;
74650;SDS011;63169;46.042;14.592;2023-02-11T15:07:46;23.17;;;15.30;;
74650;SDS011;63169;46.042;14.592;2023-02-11T15:10:17;25.23;;;16.13;;
74650;SDS011;63169;46.042;14.592;2023-02-11T15:13:02;19.08;;;13.45;;
74650;SDS011;63169;46.042;14.592;2023-02-11T15:15:28;20.63;;;14.85;;
74650;SDS011;63169;46.042;14.592;2023-02-11T15:17:55;22.73;;;13.88;;
74650;SDS011;63169;46.042;14.592;2023-02-11T15:20:26;21.90;;;13.43;;
74650;SDS011;63169;46.042;14.592;2023-02-11T15:23:00;20.55;;;14.15;;
74650;SDS011;63169;46.042;14.592;2023-02-11T15:25:27;24.88;;;13.43;;
74650;SDS011;63169;46.042;14.592;2023-02-11T15:27:54;22.23;;;14.20;;
74650;SDS011;63169;46.042;14.592;2023-02-11T15:32:47;25.40;;;16.48;;
74650;SDS011;63169;46.042;14.592;2023-02-11T15:35:18;24.25;;;16.52;;
74650;SDS011;63169;46.042;14.592;2023-02-11T15:37:46;26.58;;;15.98;;
74650;SDS011;63169;46.042;14.592;2023-02-11T15:40:18;25.30;;;15.75;;
74650;SDS011;63169;46.042;14.592;2023-02-11T15:42:59;25.77;;;16.77;;
74650;SDS011;63169;46.042;14.592;2023-02-11T15:45:41;30.90;;;21.42;;
74650;SDS011;63169;46.042;14.592;2023-02-11T15:48:08;26.73;;;16.45;;
74650;SDS011;63169;46.042;14.592;2023-02-11T15:50:35;29.08;;;17.98;;
74650;SDS011;63169;46.042;14.592;2023-02-11T15:53:24;30.20;;;18.10;;
74650;SDS011;63169;46.042;14.592;2023-02-11T15:55:57;27.65;;;18.08;;
74650;SDS011;63169;46.042;14.592;2023-02-11T15:58:34;26.60;;;19.33;;
74650;SDS011;63169;46.042;14.592;2023-02-11T16:01:00;27.20;;;14.70;;
74650;SDS011;63169;46.042;14.592;2023-02-11T16:03:26;23.40;;;14.52;;
74650;SDS011;63169;46.042;14.592;2023-02-11T16:05:56;24.48;;;15.65;;
74650;SDS011;63169;46.042;14.592;2023-02-11T16:08:44;27.90;;;16.70;;
74650;SDS011;63169;46.042;14.592;2023-02-11T16:11:26;28.98;;;14.35;;
74650;SDS011;63169;46.042;14.592;2023-02-11T16:13:55;23.52;;;15.05;;
74650;SDS011;63169;46.042;14.592;2023-02-11T16:16:22;28.55;;;17.08;;
74650;SDS011;63169;46.042;14.592;2023-02-11T16:18:55;31.30;;;17.17;;
74650;SDS011;63169;46.042;14.592;2023-02-11T16:21:29;27.95;;;15.85;;
74650;SDS011;63169;46.042;14.592;2023-02-11T16:24:00;26.73;;;21.20;;
74650;SDS011;63169;46.042;14.592;2023-02-11T16:26:28;28.33;;;13.98;;
74650;SDS011;63169;46.042;14.592;2023-02-11T16:29:05;33.60;;;14.20;;
74650;SDS011;63169;46.042;14.592;2023-02-11T16:31:32;26.98;;;16.83;;
74650;SDS011;63169;46.042;14.592;2023-02-11T16:33:59;24.73;;;13.82;;
74650;SDS011;63169;46.042;14.592;2023-02-11T16:36:40;27.60;;;16.15;;
74650;SDS011;63169;46.042;14.592;2023-02-11T16:39:06;25.40;;;17.77;;
74650;SDS011;63169;46.042;14.592;2023-02-11T16:41:32;27.83;;;15.30;;
74650;SDS011;63169;46.042;14.592;2023-02-11T16:43:57;29.95;;;17.45;;
74650;SDS011;63169;46.042;14.592;2023-02-11T16:46:22;23.77;;;16.17;;
74650;SDS011;63169;46.042;14.592;2023-02-11T16:48:48;24.98;;;11.80;;
74650;SDS011;63169;46.042;14.592;2023-02-11T16:51:13;26.15;;;16.15;;
74650;SDS011;63169;46.042;14.592;2023-02-11T16:53:39;21.70;;;15.23;;
74650;SDS011;63169;46.042;14.592;2023-02-11T16:56:04;24.08;;;14.40;;
74650;SDS011;63169;46.042;14.592;2023-02-11T16:58:30;26.90;;;13.18;;
74650;SDS011;63169;46.042;14.592;2023-02-11T17:00:55;27.83;;;17.40;;
74650;SDS011;63169;46.042;14.592;2023-02-11T17:03:24;27.58;;;18.50;;